createdAt,value
2022-11-26T00:00:35.176Z,17.48
2022-11-26T00:03:03.185Z,12.32
2022-11-26T00:05:33.353Z,8.10
2022-11-26T00:08:02.917Z,16.02
2022-11-26T00:10:34.496Z,16.42
2022-11-26T00:13:03.997Z,10.30
2022-11-26T00:15:32.883Z,21.63
2022-11-26T00:18:01.142Z,11.10
2022-11-26T00:20:31.968Z,13.23
2022-11-26T00:23:03.366Z,11.63
2022-11-26T00:25:42.285Z,15.15
2022-11-26T00:28:25.229Z,10.75
2022-11-26T00:30:53.395Z,7.38
2022-11-26T00:33:21.292Z,16.13
2022-11-26T00:35:50.569Z,18.05
2022-11-26T00:38:21.233Z,13.73
2022-11-26T00:40:49.510Z,14.25
2022-11-26T00:43:19.174Z,13.48
2022-11-26T00:45:47.822Z,17.23
2022-11-26T00:48:16.566Z,11.25
2022-11-26T00:50:48.957Z,11.23
2022-11-26T00:53:19.519Z,13.60
2022-11-26T00:55:50.044Z,8.98
2022-11-26T00:58:26.266Z,10.75
2022-11-26T01:00:55.446Z,16.45
2022-11-26T01:03:23.726Z,13.98
2022-11-26T01:05:53.608Z,14.18
2022-11-26T01:08:28.332Z,17.05
2022-11-26T01:10:56.260Z,13.88
2022-11-26T01:13:25.787Z,19.98
2022-11-26T01:15:54.837Z,17.80
2022-11-26T01:18:23.383Z,20.10
2022-11-26T01:20:51.658Z,14.90
2022-11-26T01:23:20.754Z,16.88
2022-11-26T01:25:49.097Z,22.70
2022-11-26T01:28:19.426Z,23.35
2022-11-26T01:30:48.861Z,12.52
2022-11-26T01:33:16.770Z,16.15
2022-11-26T01:35:44.736Z,14.70
2022-11-26T01:38:14.485Z,17.98
2022-11-26T01:41:04.420Z,19.83
2022-11-26T01:43:37.419Z,13.68
2022-11-26T01:46:15.629Z,10.77
2022-11-26T01:48:44.104Z,20.58
2022-11-26T01:51:12.917Z,11.82
2022-11-26T01:53:46.593Z,18.70
2022-11-26T01:56:26.867Z,15.63
2022-11-26T01:58:58.309Z,20.48
2022-11-26T02:01:27.881Z,16.60
2022-11-26T02:04:01.761Z,19.25
2022-11-26T02:06:32.881Z,19.30
2022-11-26T02:09:01.865Z,15.43
2022-11-26T02:11:30.005Z,13.68
2022-11-26T02:14:01.499Z,19.48
2022-11-26T02:16:58.824Z,23.70
2022-11-26T02:20:12.687Z,17.52
2022-11-26T02:23:04.948Z,17.80
2022-11-26T02:25:52.995Z,15.73
2022-11-26T02:28:39.212Z,23.05
2022-11-26T02:31:12.824Z,15.27
2022-11-26T02:33:51.757Z,22.40
2022-11-26T02:36:26.054Z,15.68
2022-11-26T02:38:53.963Z,21.00
2022-11-26T02:41:21.933Z,21.20
2022-11-26T02:43:49.980Z,15.98
2022-11-26T02:46:21.678Z,15.20
2022-11-26T02:48:52.970Z,14.00
2022-11-26T02:51:24.558Z,19.42
2022-11-26T02:53:53.933Z,16.05
2022-11-26T02:56:25.746Z,15.05
2022-11-26T02:58:55.539Z,22.05
2022-11-26T03:01:29.571Z,12.90
2022-11-26T03:04:00.190Z,16.27
2022-11-26T03:06:31.368Z,17.45
2022-11-26T03:08:59.915Z,17.17
2022-11-26T03:11:28.088Z,20.63
2022-11-26T03:13:56.238Z,20.05
2022-11-26T03:16:25.810Z,19.63
2022-11-26T03:18:53.815Z,14.38
2022-11-26T03:21:21.731Z,16.63
2022-11-26T03:23:49.672Z,11.18
2022-11-26T03:26:17.690Z,16.73
2022-11-26T03:28:45.620Z,13.65
2022-11-26T03:31:13.719Z,16.40
2022-11-26T03:33:43.119Z,12.20
2022-11-26T03:36:11.209Z,23.13
2022-11-26T03:38:39.166Z,15.43
2022-11-26T03:41:07.266Z,16.58
2022-11-26T03:43:35.172Z,15.00
2022-11-26T03:46:03.118Z,15.85
2022-11-26T03:48:31.033Z,21.55
2022-11-26T03:51:00.329Z,18.17
2022-11-26T03:53:28.686Z,17.33
2022-11-26T03:55:56.594Z,17.80
2022-11-26T03:58:24.493Z,21.60
2022-11-26T04:00:52.498Z,19.45
2022-11-26T04:03:20.483Z,16.35
2022-11-26T04:05:48.417Z,17.67
2022-11-26T04:08:17.865Z,10.75
2022-11-26T04:10:46.053Z,19.15
2022-11-26T04:13:13.970Z,17.40
2022-11-26T04:15:42.624Z,16.63
2022-11-26T04:18:10.509Z,16.15
2022-11-26T04:20:38.493Z,12.43
2022-11-26T04:23:06.621Z,14.27
2022-11-26T04:25:36.142Z,13.55
2022-11-26T04:28:04.202Z,16.58
2022-11-26T04:30:32.293Z,16.80
2022-11-26T04:33:00.201Z,22.42
2022-11-26T04:35:28.199Z,22.30
2022-11-26T04:37:56.207Z,13.43
2022-11-26T04:40:24.148Z,15.82
2022-11-26T04:42:53.487Z,16.63
2022-11-26T04:45:21.494Z,26.40
2022-11-26T04:47:49.484Z,16.02
2022-11-26T04:50:17.541Z,17.02
2022-11-26T04:52:48.271Z,15.45
2022-11-26T04:55:16.645Z,17.58
2022-11-26T04:57:48.775Z,16.00
2022-11-26T05:00:19.742Z,11.20
2022-11-26T05:02:47.670Z,21.17
2022-11-26T05:05:15.713Z,16.00
2022-11-26T05:07:43.692Z,15.98
2022-11-26T05:10:12.812Z,21.88
2022-11-26T05:12:40.737Z,23.05
2022-11-26T05:15:09.590Z,20.42
2022-11-26T05:17:38.866Z,15.52
2022-11-26T05:20:08.082Z,18.45
2022-11-26T05:22:36.211Z,9.88
2022-11-26T05:25:04.314Z,16.85
2022-11-26T05:27:32.233Z,20.67
2022-11-26T05:30:00.185Z,19.33
2022-11-26T05:32:28.151Z,15.27
2022-11-26T05:35:00.254Z,17.77
2022-11-26T05:37:28.521Z,21.60
2022-11-26T05:39:56.423Z,22.67
2022-11-26T05:42:24.268Z,14.85
2022-11-26T05:44:52.278Z,17.05
2022-11-26T05:47:20.148Z,14.43
2022-11-26T05:49:48.104Z,12.82
2022-11-26T05:52:17.321Z,26.67
2022-11-26T05:54:45.298Z,21.95
2022-11-26T05:57:13.255Z,14.13
2022-11-26T05:59:41.183Z,18.38
2022-11-26T06:02:09.333Z,18.90
2022-11-26T06:04:37.741Z,11.48
2022-11-26T06:07:05.869Z,16.58
2022-11-26T06:09:35.264Z,20.33
2022-11-26T06:12:03.294Z,24.88
2022-11-26T06:14:31.203Z,22.67
2022-11-26T06:16:59.185Z,20.77
2022-11-26T06:19:27.192Z,17.30
2022-11-26T06:21:55.082Z,19.10
2022-11-26T06:24:23.023Z,18.33
2022-11-26T06:26:52.313Z,18.70
2022-11-26T06:29:23.543Z,18.05
2022-11-26T06:31:55.599Z,18.45
2022-11-26T06:34:23.782Z,16.98
2022-11-26T06:36:52.039Z,22.88
2022-11-26T06:39:19.997Z,17.55
2022-11-26T06:41:47.950Z,15.45
2022-11-26T06:44:17.272Z,18.05
2022-11-26T06:46:45.217Z,16.45
2022-11-26T06:49:13.133Z,22.88
2022-11-26T06:51:41.103Z,21.65
2022-11-26T06:54:09.285Z,19.13
2022-11-26T06:56:37.278Z,16.65
2022-11-26T06:59:05.201Z,19.80
2022-11-26T07:01:34.532Z,25.77
2022-11-26T07:04:02.780Z,15.82
2022-11-26T07:06:32.710Z,15.77
2022-11-26T07:09:04.260Z,19.00
2022-11-26T07:11:32.261Z,20.65
2022-11-26T07:14:01.470Z,23.70
2022-11-26T07:16:29.761Z,27.83
2022-11-26T07:19:03.021Z,15.52
2022-11-26T07:21:31.900Z,16.52
2022-11-26T07:24:00.281Z,17.55
2022-11-26T07:26:28.234Z,13.10
2022-11-26T07:28:56.187Z,21.65
2022-11-26T07:31:24.985Z,16.42
2022-11-26T07:33:53.291Z,28.13
2022-11-26T07:36:24.383Z,26.35
2022-11-26T07:38:54.824Z,19.80
2022-11-26T07:41:23.050Z,27.85
2022-11-26T07:43:51.274Z,18.38
2022-11-26T07:46:21.782Z,23.92
2022-11-26T07:48:50.213Z,14.50
2022-11-26T07:51:20.812Z,19.13
2022-11-26T07:53:51.335Z,14.00
2022-11-26T07:56:19.650Z,17.23
2022-11-26T07:58:48.006Z,17.02
2022-11-26T08:01:17.753Z,15.00
2022-11-26T08:03:47.574Z,15.82
2022-11-26T08:06:17.305Z,21.20
2022-11-26T08:08:45.445Z,15.50
2022-11-26T08:11:16.689Z,19.70
2022-11-26T08:13:45.358Z,15.77
2022-11-26T08:16:14.167Z,15.93
2022-11-26T08:18:42.539Z,21.35
2022-11-26T08:21:10.947Z,17.33
2022-11-26T08:23:39.371Z,18.88
2022-11-26T08:26:31.021Z,12.70
2022-11-26T08:28:57.740Z,22.40
2022-11-26T08:31:27.608Z,15.73
2022-11-26T08:33:58.050Z,14.02
2022-11-26T08:36:26.671Z,23.40
2022-11-26T08:38:54.728Z,13.25
2022-11-26T08:41:22.995Z,17.75
2022-11-26T08:44:06.157Z,13.68
2022-11-26T08:46:35.991Z,19.27
2022-11-26T08:49:04.644Z,14.20
2022-11-26T08:51:32.510Z,12.13
2022-11-26T08:54:00.455Z,14.30
2022-11-26T08:56:28.541Z,14.05
2022-11-26T08:58:56.591Z,16.35
2022-11-26T09:01:27.007Z,12.25
2022-11-26T09:03:58.345Z,11.88
2022-11-26T09:06:28.496Z,16.63
2022-11-26T09:09:14.924Z,11.93
2022-11-26T09:11:46.660Z,11.10
2022-11-26T09:14:16.349Z,12.95
2022-11-26T09:16:44.589Z,11.57
2022-11-26T09:19:15.697Z,10.43
2022-11-26T09:21:44.149Z,9.52
2022-11-26T09:24:12.537Z,11.23
2022-11-26T09:26:40.585Z,8.52
2022-11-26T09:29:08.710Z,9.73
2022-11-26T09:31:42.735Z,10.27
2022-11-26T09:34:24.620Z,10.68
2022-11-26T09:36:52.548Z,10.73
2022-11-26T09:39:20.596Z,12.15
2022-11-26T09:41:54.840Z,8.38
2022-11-26T09:44:38.809Z,13.18
2022-11-26T09:47:13.427Z,9.45
2022-11-26T09:49:54.420Z,11.10
2022-11-26T09:52:26.862Z,11.30
2022-11-26T09:55:06.302Z,15.52
2022-11-26T09:57:40.664Z,14.23
2022-11-26T10:00:22.219Z,16.50
2022-11-26T10:02:53.250Z,15.75
2022-11-26T10:05:24.138Z,14.80
2022-11-26T10:08:05.320Z,10.88
2022-11-26T10:10:42.784Z,13.25
2022-11-26T10:13:21.934Z,7.75
2022-11-26T10:15:59.285Z,13.65
2022-11-26T10:18:36.759Z,10.38
2022-11-26T10:21:14.673Z,13.73
2022-11-26T10:23:47.739Z,7.93
2022-11-26T10:26:17.899Z,9.43
2022-11-26T10:28:48.640Z,7.68
2022-11-26T10:31:22.149Z,10.25
2022-11-26T10:33:55.951Z,7.22
2022-11-26T10:36:27.976Z,8.02
2022-11-26T10:38:57.179Z,13.68
2022-11-26T10:41:28.909Z,9.90
2022-11-26T10:43:56.825Z,8.15
2022-11-26T10:46:36.189Z,15.30
2022-11-26T10:49:22.378Z,7.47
2022-11-26T10:51:55.601Z,11.43
2022-11-26T10:54:27.547Z,7.05
2022-11-26T10:56:56.948Z,8.50
2022-11-26T10:59:28.174Z,10.13
2022-11-26T11:02:01.936Z,8.35
2022-11-26T11:04:32.872Z,11.32
2022-11-26T11:07:03.596Z,9.23
2022-11-26T11:09:36.538Z,5.40
2022-11-26T11:12:20.293Z,8.20
2022-11-26T11:14:49.130Z,6.18
2022-11-26T11:17:31.829Z,15.50
2022-11-26T11:20:02.095Z,6.43
2022-11-26T11:22:31.531Z,8.25
2022-11-26T11:25:00.744Z,10.52
2022-11-26T11:27:43.809Z,12.15
2022-11-26T11:30:26.423Z,10.10
2022-11-26T11:32:57.758Z,12.68
2022-11-26T11:35:30.262Z,11.73
2022-11-26T11:38:00.118Z,13.27
2022-11-26T11:40:30.967Z,9.52
2022-11-26T11:43:01.092Z,9.23
2022-11-26T11:45:35.386Z,10.85
2022-11-26T11:48:17.164Z,8.70
2022-11-26T11:50:50.726Z,11.50
2022-11-26T11:53:34.747Z,9.73
2022-11-26T11:56:23.437Z,8.57
2022-11-26T11:59:21.962Z,10.73
2022-11-26T12:02:10.106Z,12.13
2022-11-26T12:05:01.580Z,13.48
2022-11-26T12:07:38.123Z,11.55
2022-11-26T12:10:14.997Z,10.57
2022-11-26T12:12:47.606Z,7.72
2022-11-26T12:15:23.838Z,10.23
2022-11-26T12:17:58.023Z,6.32
2022-11-26T12:20:31.250Z,9.85
2022-11-26T12:23:11.543Z,5.13
2022-11-26T12:25:46.012Z,7.18
2022-11-26T12:28:16.680Z,7.75
2022-11-26T12:30:51.161Z,8.23
2022-11-26T12:33:24.382Z,8.40
2022-11-26T12:35:55.927Z,5.03
2022-11-26T12:38:29.649Z,9.38
2022-11-26T12:41:02.594Z,8.90
2022-11-26T12:43:44.381Z,4.90
2022-11-26T12:46:19.588Z,4.03
2022-11-26T12:48:55.373Z,5.47
2022-11-26T12:51:29.760Z,8.80
2022-11-26T12:54:17.635Z,7.30
2022-11-26T12:56:55.945Z,7.50
2022-11-26T12:59:28.720Z,5.32
2022-11-26T13:01:58.467Z,7.85
2022-11-26T13:04:37.560Z,8.25
2022-11-26T13:07:17.883Z,9.65
2022-11-26T13:10:00.132Z,9.55
2022-11-26T13:12:39.662Z,6.00
2022-11-26T13:15:15.387Z,6.88
2022-11-26T13:17:45.041Z,5.88
2022-11-26T13:20:29.473Z,10.07
2022-11-26T13:23:27.860Z,7.10
2022-11-26T13:26:14.174Z,8.30
2022-11-26T13:29:03.736Z,12.73
2022-11-26T13:31:52.501Z,6.00
2022-11-26T13:34:40.519Z,5.70
2022-11-26T13:37:25.162Z,12.43
2022-11-26T13:40:29.976Z,10.35
2022-11-26T13:43:27.704Z,5.25
2022-11-26T13:46:03.439Z,5.75
2022-11-26T13:48:38.035Z,7.10
2022-11-26T13:51:09.112Z,10.13
2022-11-26T13:53:41.196Z,6.72
2022-11-26T13:56:10.876Z,5.57
2022-11-26T13:58:48.956Z,7.50
2022-11-26T14:03:57.362Z,7.13
2022-11-26T14:06:25.505Z,6.28
2022-11-26T14:08:54.582Z,7.13
2022-11-26T14:11:57.179Z,5.45
2022-11-26T14:14:38.994Z,11.20
2022-11-26T14:17:18.274Z,10.30
2022-11-26T14:20:02.841Z,9.18
2022-11-26T14:22:33.108Z,8.75
2022-11-26T14:25:03.930Z,15.25
2022-11-26T14:27:34.537Z,9.23
2022-11-26T14:30:24.649Z,10.02
2022-11-26T14:33:06.524Z,9.98
2022-11-26T14:35:36.238Z,9.88
2022-11-26T14:38:06.361Z,9.05
2022-11-26T14:40:36.021Z,12.50
2022-11-26T14:43:16.101Z,12.27
2022-11-26T14:45:45.956Z,8.00
2022-11-26T14:48:25.665Z,10.88
2022-11-26T14:50:55.188Z,8.82
2022-11-26T14:53:26.048Z,8.80
2022-11-26T14:55:54.458Z,10.63
2022-11-26T14:58:30.477Z,8.70
2022-11-26T15:01:18.839Z,10.68
2022-11-26T15:03:57.396Z,14.85
2022-11-26T15:06:34.767Z,12.43
2022-11-26T15:09:15.051Z,10.13
2022-11-26T15:11:47.956Z,10.18
2022-11-26T15:14:23.393Z,9.85
2022-11-26T15:16:59.716Z,10.10
2022-11-26T15:19:32.735Z,14.80
2022-11-26T15:22:03.784Z,11.43
2022-11-26T15:24:32.586Z,9.63
2022-11-26T15:27:00.545Z,11.07
2022-11-26T15:29:31.425Z,8.55
2022-11-26T15:31:59.733Z,6.95
2022-11-26T15:34:32.276Z,8.18
2022-11-26T15:37:00.328Z,12.38
2022-11-26T15:39:30.384Z,8.32
2022-11-26T15:42:02.670Z,11.60
2022-11-26T15:44:36.466Z,11.73
2022-11-26T15:47:07.329Z,9.25
2022-11-26T15:49:41.277Z,8.45
2022-11-26T15:52:12.742Z,9.25
2022-11-26T15:55:10.678Z,8.70
2022-11-26T15:57:34.309Z,13.20
2022-11-26T16:00:08.393Z,10.13
2022-11-26T16:02:40.949Z,12.30
2022-11-26T16:05:32.120Z,16.63
2022-11-26T16:08:01.989Z,13.90
2022-11-26T16:10:35.277Z,12.55
2022-11-26T16:13:10.172Z,16.17
2022-11-26T16:15:45.810Z,14.48
2022-11-26T16:18:17.536Z,15.98
2022-11-26T16:20:47.106Z,14.00
2022-11-26T16:23:22.749Z,14.82
2022-11-26T16:26:13.629Z,19.10
2022-11-26T16:28:41.718Z,20.70
2022-11-26T16:31:09.949Z,16.80
2022-11-26T16:33:38.128Z,13.77
2022-11-26T16:36:22.066Z,12.38
2022-11-26T16:38:50.700Z,21.70
2022-11-26T16:41:20.678Z,21.63
2022-11-26T16:43:48.856Z,12.20
2022-11-26T16:46:18.904Z,21.08
2022-11-26T16:48:48.202Z,17.05
2022-11-26T16:51:18.086Z,16.00
2022-11-26T16:53:46.088Z,19.70
2022-11-26T16:56:21.166Z,16.02
2022-11-26T16:58:50.113Z,28.23
2022-11-26T17:01:18.298Z,28.13
2022-11-26T17:03:46.430Z,19.58
2022-11-26T17:06:24.814Z,26.75
2022-11-26T17:08:52.917Z,25.67
2022-11-26T17:11:20.845Z,23.63
2022-11-26T17:13:48.744Z,19.30
2022-11-26T17:16:20.879Z,23.42
2022-11-26T17:18:50.003Z,18.88
2022-11-26T17:21:19.336Z,20.90
2022-11-26T17:23:47.251Z,25.00
2022-11-26T17:26:20.621Z,23.73
2022-11-26T17:28:48.907Z,29.05
2022-11-26T17:31:17.269Z,28.02
2022-11-26T17:33:45.272Z,31.40
2022-11-26T17:36:17.271Z,28.05
2022-11-26T17:38:47.701Z,32.28
2022-11-26T17:41:16.288Z,31.25
2022-11-26T17:43:44.368Z,35.95
2022-11-26T17:46:21.283Z,37.20
2022-11-26T17:48:54.269Z,34.35
2022-11-26T17:51:25.014Z,32.03
2022-11-26T17:53:54.300Z,35.95
2022-11-26T17:56:24.197Z,32.20
2022-11-26T17:58:52.260Z,41.55
2022-11-26T18:01:20.781Z,34.75
2022-11-26T18:03:48.820Z,31.08
2022-11-26T18:06:21.959Z,31.70
2022-11-26T18:08:54.340Z,36.15
2022-11-26T18:11:44.157Z,39.05
2022-11-26T18:14:24.890Z,38.35
2022-11-26T18:16:54.036Z,36.15
2022-11-26T18:19:43.349Z,35.78
2022-11-26T18:22:20.227Z,28.02
2022-11-26T18:24:56.524Z,43.15
2022-11-26T18:27:28.932Z,41.13
2022-11-26T18:29:56.911Z,40.95
2022-11-26T18:32:24.826Z,29.17
2022-11-26T18:34:53.384Z,36.45
2022-11-26T18:37:21.489Z,34.72
2022-11-26T18:39:49.429Z,37.85
2022-11-26T18:45:09.094Z,40.50
2022-11-26T18:47:37.685Z,42.20
2022-11-26T18:50:07.277Z,39.25
2022-11-26T18:52:35.212Z,34.63
2022-11-26T18:55:04.758Z,37.17
2022-11-26T18:57:33.108Z,37.25
2022-11-26T19:00:01.051Z,34.35
2022-11-26T19:02:30.373Z,36.17
2022-11-26T19:04:58.400Z,38.67
2022-11-26T19:07:26.334Z,30.80
2022-11-26T19:09:54.230Z,36.70
2022-11-26T19:12:22.121Z,38.20
2022-11-26T19:14:50.128Z,42.40
2022-11-26T19:17:18.116Z,56.60
2022-11-26T19:19:47.787Z,46.58
2022-11-26T19:22:15.726Z,36.38
2022-11-26T19:24:43.659Z,39.95
2022-11-26T19:27:11.584Z,37.97
2022-11-26T19:29:39.742Z,48.15
2022-11-26T19:32:07.983Z,71.72
2022-11-26T19:34:35.906Z,63.85
2022-11-26T19:37:05.206Z,60.40
2022-11-26T19:39:33.304Z,82.35
2022-11-26T19:42:01.410Z,89.50
2022-11-26T19:44:29.272Z,97.80
2022-11-26T19:46:57.150Z,73.88
2022-11-26T19:49:25.292Z,42.28
2022-11-26T19:51:53.984Z,40.00
2022-11-26T19:54:23.626Z,54.67
2022-11-26T19:56:51.552Z,34.55
2022-11-26T19:59:20.284Z,37.08
2022-11-26T20:01:48.583Z,36.90
2022-11-26T20:04:19.715Z,39.38
2022-11-26T20:06:47.735Z,41.17
2022-11-26T20:09:16.090Z,40.03
2022-11-26T20:11:45.693Z,43.20
2022-11-26T20:14:15.126Z,38.78
2022-11-26T20:16:44.571Z,37.60
2022-11-26T20:19:13.276Z,37.42
2022-11-26T20:21:41.238Z,41.17
2022-11-26T20:24:12.504Z,44.67
2022-11-26T20:26:42.833Z,39.83
2022-11-26T20:29:13.919Z,39.10
2022-11-26T20:31:45.745Z,46.50
2022-11-26T20:34:14.656Z,40.45
2022-11-26T20:36:42.646Z,105.07
2022-11-26T20:39:14.673Z,41.10
2022-11-26T20:41:42.775Z,74.90
2022-11-26T20:44:13.184Z,145.55
2022-11-26T20:46:41.567Z,132.95
2022-11-26T20:49:11.523Z,78.28
2022-11-26T20:51:39.707Z,51.90
2022-11-26T20:54:07.729Z,37.67
2022-11-26T20:56:35.745Z,25.77
2022-11-26T20:59:04.076Z,26.08
2022-11-26T21:01:34.100Z,27.83
2022-11-26T21:04:02.517Z,36.05
2022-11-26T21:06:31.415Z,34.25
2022-11-26T21:09:01.761Z,36.97
2022-11-26T21:11:30.561Z,26.95
2022-11-26T21:13:59.680Z,29.98
2022-11-26T21:16:28.374Z,25.08
2022-11-26T21:18:58.406Z,27.88
2022-11-26T21:21:27.191Z,29.65
2022-11-26T21:23:55.274Z,24.50
2022-11-26T21:26:25.353Z,68.43
2022-11-26T21:28:53.700Z,162.05
2022-11-26T21:31:22.328Z,145.60
2022-11-26T21:33:57.864Z,141.48
2022-11-26T21:36:26.604Z,156.05
2022-11-26T21:38:54.951Z,69.07
2022-11-26T21:41:23.489Z,204.32
2022-11-26T21:43:52.580Z,200.45
2022-11-26T21:46:22.511Z,262.60
2022-11-26T21:48:52.819Z,234.63
2022-11-26T21:51:26.952Z,230.60
2022-11-26T21:53:58.300Z,202.20
2022-11-26T21:56:28.906Z,98.45
2022-11-26T21:59:09.707Z,180.68
2022-11-26T22:01:39.141Z,229.45
2022-11-26T22:04:22.947Z,189.88
2022-11-26T22:06:56.341Z,119.18
2022-11-26T22:09:29.120Z,115.22
2022-11-26T22:11:57.235Z,161.63
2022-11-26T22:14:25.252Z,306.88
2022-11-26T22:16:53.785Z,152.00
2022-11-26T22:19:21.746Z,215.00
2022-11-26T22:21:49.703Z,188.35
2022-11-26T22:24:21.260Z,207.15
2022-11-26T22:26:49.333Z,272.13
2022-11-26T22:29:18.910Z,204.25
2022-11-26T22:31:48.182Z,223.70
2022-11-26T22:34:18.167Z,339.95
2022-11-26T22:36:47.544Z,189.85
2022-11-26T22:39:18.575Z,264.23
2022-11-26T22:41:47.875Z,271.30
2022-11-26T22:44:16.861Z,176.30
2022-11-26T22:46:45.029Z,182.18
2022-11-26T22:49:15.496Z,83.43
2022-11-26T22:51:43.501Z,96.68
2022-11-26T22:54:13.974Z,160.40
2022-11-26T22:56:43.293Z,108.90
2022-11-26T22:59:14.170Z,98.45
2022-11-26T23:01:42.308Z,80.47
2022-11-26T23:04:11.234Z,32.95
2022-11-26T23:06:39.829Z,37.67
2022-11-26T23:09:09.142Z,59.28
2022-11-26T23:11:39.125Z,38.42
2022-11-26T23:14:09.510Z,41.50
2022-11-26T23:16:38.992Z,73.93
2022-11-26T23:19:07.252Z,46.20
2022-11-26T23:21:38.402Z,36.25
2022-11-26T23:24:07.491Z,26.98
2022-11-26T23:26:37.111Z,27.20
2022-11-26T23:29:06.797Z,28.52
2022-11-26T23:31:38.097Z,36.25
2022-11-26T23:34:07.142Z,35.50
2022-11-26T23:36:36.017Z,67.93
2022-11-26T23:39:06.191Z,82.30
2022-11-26T23:41:34.624Z,94.18
2022-11-26T23:44:03.408Z,130.93
2022-11-26T23:46:33.213Z,290.35
2022-11-26T23:49:02.549Z,115.07
2022-11-26T23:51:32.410Z,29.00
2022-11-26T23:54:00.760Z,15.82
2022-11-26T23:56:30.571Z,16.77
2022-11-26T23:59:01.499Z,16.15
